createdAt,value
2018-09-10T00:01:00.709Z,99.9
2018-09-10T00:02:07.640Z,99.9
2018-09-10T00:03:14.851Z,99.9
2018-09-10T00:04:22.060Z,99.9
2018-09-10T00:05:29.267Z,99.9
2018-09-10T00:06:36.492Z,99.9
2018-09-10T00:07:43.428Z,99.9
2018-09-10T00:08:50.637Z,99.9
2018-09-10T00:09:57.850Z,99.9
2018-09-10T00:11:05.061Z,99.9
2018-09-10T00:12:12.486Z,99.9
2018-09-10T00:13:19.698Z,99.9
2018-09-10T00:14:26.906Z,99.9
2018-09-10T00:15:34.116Z,99.9
2018-09-10T00:16:41.329Z,99.9
2018-09-10T00:17:48.540Z,99.9
2018-09-10T00:18:55.751Z,99.9
2018-09-10T00:20:02.960Z,99.9
2018-09-10T00:21:10.176Z,99.9
2018-09-10T00:22:17.388Z,99.9
2018-09-10T00:23:24.599Z,99.9
2018-09-10T00:24:31.811Z,99.9
2018-09-10T00:25:39.017Z,99.9
2018-09-10T00:26:45.950Z,99.9
2018-09-10T00:27:52.886Z,99.9
2018-09-10T00:29:00.101Z,99.9
2018-09-10T00:30:07.304Z,99.9
2018-09-10T00:31:14.513Z,99.9
2018-09-10T00:32:21.724Z,99.9
2018-09-10T00:33:28.658Z,99.9
2018-09-10T00:34:35.869Z,99.9
2018-09-10T00:35:43.077Z,99.9
2018-09-10T00:36:50.049Z,99.9
2018-09-10T00:37:57.264Z,99.9
2018-09-10T00:39:04.477Z,99.9
2018-09-10T00:40:11.688Z,99.9
2018-09-10T00:41:18.897Z,99.9
2018-09-10T00:42:25.840Z,99.9
2018-09-10T00:43:33.049Z,99.9
2018-09-10T00:44:40.267Z,99.9
2018-09-10T00:45:46.928Z,99.9
2018-09-10T00:46:54.136Z,99.9
2018-09-10T00:48:01.353Z,99.9
2018-09-10T00:49:08.285Z,99.9
2018-09-10T00:50:15.497Z,99.9
2018-09-10T00:51:22.715Z,99.9
2018-09-10T00:52:29.925Z,99.9
2018-09-10T00:53:36.860Z,99.9
2018-09-10T00:54:44.069Z,99.9
2018-09-10T00:55:51.283Z,99.9
2018-09-10T00:56:58.496Z,99.9
2018-09-10T00:58:05.706Z,99.9
2018-09-10T00:59:12.915Z,99.9
2018-09-10T01:00:20.124Z,99.9
2018-09-10T01:01:27.332Z,99.9
2018-09-10T01:02:34.267Z,99.9
2018-09-10T01:03:41.477Z,99.9
2018-09-10T01:04:48.684Z,99.9
2018-09-10T01:05:55.894Z,99.9
2018-09-10T01:07:03.107Z,99.9
2018-09-10T01:08:10.041Z,99.9
2018-09-10T01:09:17.251Z,99.9
2018-09-10T01:10:24.461Z,99.9
2018-09-10T01:11:31.668Z,99.9
2018-09-10T01:12:38.876Z,99.9
2018-09-10T01:13:46.083Z,99.9
2018-09-10T01:14:53.291Z,99.9
2018-09-10T01:16:00.499Z,99.9
2018-09-10T01:17:07.711Z,99.9
2018-09-10T01:18:14.915Z,99.9
2018-09-10T01:19:22.121Z,99.9
2018-09-10T01:20:29.068Z,99.9
2018-09-10T01:21:36.276Z,99.9
2018-09-10T01:22:43.482Z,99.9
2018-09-10T01:23:50.705Z,99.9
2018-09-10T01:24:57.917Z,99.9
2018-09-10T01:26:05.129Z,99.9
2018-09-10T01:27:12.340Z,99.9
2018-09-10T01:28:19.551Z,99.9
2018-09-10T01:29:26.493Z,99.9
2018-09-10T01:30:33.708Z,99.9
2018-09-10T01:31:40.917Z,99.9
2018-09-10T01:32:48.129Z,99.9
2018-09-10T01:33:55.059Z,99.9
2018-09-10T01:35:02.272Z,99.9
2018-09-10T01:36:09.484Z,99.9
2018-09-10T01:37:16.696Z,99.9
2018-09-10T01:38:23.938Z,99.9
2018-09-10T01:39:31.154Z,99.9
2018-09-10T01:40:38.360Z,99.9
2018-09-10T01:41:45.566Z,99.9
2018-09-10T01:42:52.781Z,99.9
2018-09-10T01:43:59.993Z,99.9
2018-09-10T01:45:07.215Z,99.9
2018-09-10T01:46:14.421Z,99.9
2018-09-10T01:47:21.630Z,99.9
2018-09-10T01:48:28.841Z,99.9
2018-09-10T01:49:36.050Z,99.9
2018-09-10T01:50:43.257Z,99.9
2018-09-10T01:51:50.469Z,99.9
2018-09-10T01:52:57.691Z,99.9
2018-09-10T01:54:04.912Z,99.9
2018-09-10T01:55:12.128Z,99.9
2018-09-10T01:56:19.342Z,99.9
2018-09-10T01:57:26.545Z,99.9
2018-09-10T01:58:33.757Z,99.9
2018-09-10T01:59:40.968Z,99.9
2018-09-10T02:00:48.180Z,99.9
2018-09-10T02:01:55.114Z,99.9
2018-09-10T02:03:02.322Z,99.9
2018-09-10T02:04:09.534Z,99.9
2018-09-10T02:05:16.745Z,99.9
2018-09-10T02:06:23.954Z,99.9
2018-09-10T02:07:31.164Z,99.9
2018-09-10T02:08:38.383Z,99.9
2018-09-10T02:09:45.597Z,99.9
2018-09-10T02:10:52.809Z,99.9
2018-09-10T02:12:00.025Z,99.9
2018-09-10T02:13:07.244Z,99.9
2018-09-10T02:14:14.445Z,99.9
2018-09-10T02:15:21.652Z,99.9
2018-09-10T02:16:28.589Z,99.9
2018-09-10T02:17:35.802Z,99.9
2018-09-10T02:18:43.016Z,99.9
2018-09-10T02:19:50.222Z,99.9
2018-09-10T02:20:57.434Z,99.9
2018-09-10T02:22:04.642Z,99.9
2018-09-10T02:23:11.853Z,99.9
2018-09-10T02:24:19.066Z,99.9
2018-09-10T02:25:26.270Z,99.9
2018-09-10T02:26:33.475Z,99.9
2018-09-10T02:27:40.421Z,99.9
2018-09-10T02:28:47.790Z,99.9
2018-09-10T02:29:55.000Z,99.9
2018-09-10T02:31:01.937Z,99.9
2018-09-10T02:32:09.138Z,99.9
2018-09-10T02:33:16.350Z,99.9
2018-09-10T02:34:23.555Z,99.9
2018-09-10T02:35:30.766Z,99.9
2018-09-10T02:36:37.983Z,99.9
2018-09-10T02:37:45.194Z,99.9
2018-09-10T02:38:52.410Z,99.9
2018-09-10T02:39:59.617Z,99.9
2018-09-10T02:41:06.829Z,99.9
2018-09-10T02:42:14.045Z,99.9
2018-09-10T02:43:21.261Z,99.9
2018-09-10T02:44:28.466Z,99.9
2018-09-10T02:45:35.690Z,99.9
2018-09-10T02:46:42.945Z,99.9
2018-09-10T02:47:50.153Z,99.9
2018-09-10T02:48:57.371Z,99.9
2018-09-10T02:50:04.304Z,99.9
2018-09-10T02:51:11.520Z,99.9
2018-09-10T02:52:18.728Z,99.9
2018-09-10T02:53:25.977Z,99.9
2018-09-10T02:54:33.192Z,99.9
2018-09-10T02:55:40.131Z,99.9
2018-09-10T02:56:47.341Z,99.9
2018-09-10T02:57:54.551Z,99.9
2018-09-10T02:59:01.824Z,99.9
2018-09-10T03:00:09.070Z,99.9
2018-09-10T03:01:16.277Z,99.9
2018-09-10T03:02:23.221Z,99.9
2018-09-10T03:03:30.432Z,99.9
2018-09-10T03:04:37.647Z,99.9
2018-09-10T03:05:44.859Z,99.9
2018-09-10T03:06:52.066Z,99.9
2018-09-10T03:07:59.272Z,99.9
2018-09-10T03:09:06.484Z,99.9
2018-09-10T03:10:13.424Z,99.9
2018-09-10T03:11:20.365Z,99.9
2018-09-10T03:12:27.582Z,99.9
2018-09-10T03:13:34.792Z,99.9
2018-09-10T03:14:42.004Z,99.9
2018-09-10T03:15:49.215Z,99.9
2018-09-10T03:16:56.422Z,99.9
2018-09-10T03:18:03.692Z,99.9
2018-09-10T03:19:11.516Z,99.9
2018-09-10T03:20:18.728Z,99.9
2018-09-10T03:21:25.933Z,99.9
2018-09-10T03:22:33.164Z,99.9
2018-09-10T03:23:40.372Z,99.9
2018-09-10T03:24:47.584Z,99.9
2018-09-10T03:25:54.794Z,99.9
2018-09-10T03:27:02.002Z,99.9
2018-09-10T03:28:09.212Z,99.9
2018-09-10T03:29:16.435Z,99.9
2018-09-10T03:30:23.633Z,99.9
2018-09-10T03:31:30.846Z,99.9
2018-09-10T03:32:38.053Z,99.9
2018-09-10T03:33:45.317Z,99.9
2018-09-10T03:34:52.672Z,99.9
2018-09-10T03:35:59.880Z,99.9
2018-09-10T03:37:07.087Z,99.9
2018-09-10T03:38:14.297Z,99.9
2018-09-10T03:39:21.510Z,99.9
2018-09-10T03:40:28.717Z,99.9
2018-09-10T03:41:35.693Z,99.9
2018-09-10T03:42:42.899Z,99.9
2018-09-10T03:43:50.110Z,99.9
2018-09-10T03:44:57.318Z,99.9
2018-09-10T03:46:04.528Z,99.9
2018-09-10T03:47:11.789Z,99.9
2018-09-10T03:48:19.090Z,99.9
2018-09-10T03:49:26.302Z,99.9
2018-09-10T03:50:33.512Z,99.9
2018-09-10T03:51:40.451Z,99.9
2018-09-10T03:52:47.663Z,99.9
2018-09-10T03:53:54.872Z,99.9
2018-09-10T03:55:01.807Z,99.9
2018-09-10T03:56:09.011Z,99.9
2018-09-10T03:57:16.220Z,99.9
2018-09-10T03:58:23.428Z,99.9
2018-09-10T03:59:30.632Z,99.9
2018-09-10T04:00:37.851Z,99.9
2018-09-10T04:01:45.053Z,99.9
2018-09-10T04:02:52.263Z,99.9
2018-09-10T04:03:59.468Z,99.9
2018-09-10T04:05:06.679Z,99.9
2018-09-10T04:06:13.886Z,99.9
2018-09-10T04:07:21.103Z,99.9
2018-09-10T04:08:28.316Z,99.9
2018-09-10T04:09:35.526Z,99.9
2018-09-10T04:10:42.757Z,99.9
2018-09-10T04:11:49.701Z,99.9
2018-09-10T04:12:56.911Z,99.9
2018-09-10T04:14:04.122Z,99.9
2018-09-10T04:15:11.056Z,99.9
2018-09-10T04:16:18.264Z,99.9
2018-09-10T04:17:25.466Z,99.9
2018-09-10T04:18:32.679Z,99.9
2018-09-10T04:19:39.891Z,99.9
2018-09-10T04:20:47.096Z,99.9
2018-09-10T04:21:54.304Z,99.9
2018-09-10T04:23:01.511Z,99.9
2018-09-10T04:24:08.715Z,99.9
2018-09-10T04:25:15.921Z,99.9
2018-09-10T04:26:23.128Z,99.9
2018-09-10T04:27:30.350Z,99.9
2018-09-10T04:28:37.573Z,99.9
2018-09-10T04:29:44.788Z,99.9
2018-09-10T04:30:52.001Z,99.9
2018-09-10T04:31:59.207Z,99.9
2018-09-10T04:33:06.416Z,99.9
2018-09-10T04:34:13.639Z,99.9
2018-09-10T04:35:20.843Z,99.9
2018-09-10T04:36:27.498Z,99.9
2018-09-10T04:37:34.719Z,99.9
2018-09-10T04:38:41.942Z,99.9
2018-09-10T04:39:49.149Z,99.9
2018-09-10T04:40:56.569Z,99.9
2018-09-10T04:42:03.787Z,99.9
2018-09-10T04:43:11.064Z,99.9
2018-09-10T04:44:18.276Z,99.9
2018-09-10T04:45:25.489Z,99.9
2018-09-10T04:46:32.696Z,99.9
2018-09-10T04:47:39.910Z,99.9
2018-09-10T04:48:47.117Z,99.9
2018-09-10T04:49:54.121Z,99.9
2018-09-10T04:51:01.327Z,99.9
2018-09-10T04:52:08.535Z,99.9
2018-09-10T04:53:15.750Z,99.9
2018-09-10T04:54:22.957Z,99.9
2018-09-10T04:55:30.174Z,99.9
2018-09-10T04:56:37.387Z,99.9
2018-09-10T04:57:44.595Z,99.9
2018-09-10T04:58:51.801Z,99.9
2018-09-10T04:59:59.008Z,99.9
2018-09-10T05:01:06.222Z,99.9
2018-09-10T05:02:12.889Z,99.9
2018-09-10T05:03:20.101Z,99.9
2018-09-10T05:04:27.044Z,99.9
2018-09-10T05:05:34.478Z,99.9
2018-09-10T05:06:41.686Z,99.9
2018-09-10T05:07:48.896Z,99.9
2018-09-10T05:08:56.107Z,99.9
2018-09-10T05:10:03.383Z,99.9
2018-09-10T05:11:10.935Z,99.9
2018-09-10T05:12:18.147Z,99.9
2018-09-10T05:13:25.357Z,99.9
2018-09-10T05:14:32.571Z,99.9
2018-09-10T05:15:39.778Z,99.9
2018-09-10T05:16:46.985Z,99.9
2018-09-10T05:17:53.917Z,99.9
2018-09-10T05:19:01.128Z,99.9
2018-09-10T05:20:08.343Z,99.9
2018-09-10T05:21:15.553Z,99.9
2018-09-10T05:22:22.498Z,99.9
2018-09-10T05:23:29.427Z,99.9
2018-09-10T05:24:36.644Z,99.9
2018-09-10T05:25:43.848Z,99.9
2018-09-10T05:26:51.055Z,99.9
2018-09-10T05:27:58.272Z,99.9
2018-09-10T05:29:05.502Z,99.9
2018-09-10T05:30:12.435Z,99.9
2018-09-10T05:31:19.649Z,99.9
2018-09-10T05:32:26.854Z,99.9
2018-09-10T05:33:34.106Z,99.9
2018-09-10T05:34:41.035Z,99.9
2018-09-10T05:35:47.702Z,99.9
2018-09-10T05:36:54.912Z,99.9
2018-09-10T05:38:02.119Z,99.9
2018-09-10T05:39:09.329Z,99.9
2018-09-10T05:40:16.277Z,99.9
2018-09-10T05:41:23.485Z,99.9
2018-09-10T05:42:30.428Z,99.9
2018-09-10T05:43:37.368Z,99.9
2018-09-10T05:44:44.569Z,99.9
2018-09-10T05:45:51.501Z,99.9
2018-09-10T05:46:58.713Z,99.9
2018-09-10T05:48:05.921Z,99.9
2018-09-10T05:49:13.133Z,99.9
2018-09-10T05:50:20.350Z,99.9
2018-09-10T05:51:27.571Z,99.9
2018-09-10T05:52:34.784Z,99.9
2018-09-10T05:53:42.002Z,99.9
2018-09-10T05:54:48.936Z,99.9
2018-09-10T05:55:56.143Z,99.9
2018-09-10T05:57:03.349Z,99.9
2018-09-10T05:58:10.561Z,99.9
2018-09-10T05:59:17.777Z,99.9
2018-09-10T06:00:24.982Z,99.9
2018-09-10T06:01:32.192Z,99.9
2018-09-10T06:02:39.399Z,99.9
2018-09-10T06:03:46.611Z,99.9
2018-09-10T06:04:53.545Z,99.9
2018-09-10T06:06:00.763Z,99.9
2018-09-10T06:07:07.979Z,99.9
2018-09-10T06:08:14.644Z,99.9
2018-09-10T06:09:21.850Z,99.9
2018-09-10T06:10:28.851Z,99.9
2018-09-10T06:11:36.313Z,99.9
2018-09-10T06:12:43.526Z,99.9
2018-09-10T06:13:50.751Z,99.9
2018-09-10T06:14:57.961Z,99.9
2018-09-10T06:16:05.170Z,99.9
2018-09-10T06:17:12.391Z,99.9
2018-09-10T06:18:19.052Z,99.9
2018-09-10T06:19:26.296Z,99.9
2018-09-10T06:20:33.512Z,99.9
2018-09-10T06:21:40.717Z,99.9
2018-09-10T06:22:47.928Z,99.9
2018-09-10T06:23:54.864Z,99.9
2018-09-10T06:25:01.794Z,99.9
2018-09-10T06:26:08.732Z,99.9
2018-09-10T06:27:15.947Z,99.9
2018-09-10T06:28:23.165Z,99.9
2018-09-10T06:29:29.821Z,99.9
2018-09-10T06:30:37.030Z,99.9
2018-09-10T06:31:44.245Z,99.9
2018-09-10T06:32:51.457Z,99.9
2018-09-10T06:33:58.407Z,99.9
2018-09-10T06:35:05.683Z,99.9
2018-09-10T06:36:12.893Z,99.9
2018-09-10T06:37:20.105Z,99.9
2018-09-10T06:38:27.315Z,99.9
2018-09-10T06:39:34.521Z,99.9
2018-09-10T06:40:41.736Z,99.9
2018-09-10T06:41:48.941Z,99.9
2018-09-10T06:42:56.153Z,99.9
2018-09-10T06:44:03.366Z,99.9
2018-09-10T06:45:10.574Z,99.9
2018-09-10T06:46:17.513Z,99.9
2018-09-10T06:47:24.443Z,99.9
2018-09-10T06:48:31.653Z,99.9
2018-09-10T06:49:38.590Z,99.9
2018-09-10T06:50:45.534Z,99.9
2018-09-10T06:51:52.741Z,99.9
2018-09-10T06:52:59.951Z,99.9
2018-09-10T06:54:06.929Z,99.9
2018-09-10T06:55:14.136Z,99.9
2018-09-10T06:56:21.347Z,99.9
2018-09-10T06:57:28.556Z,99.9
2018-09-10T06:58:35.768Z,99.9
2018-09-10T06:59:42.706Z,99.9
2018-09-10T07:00:49.916Z,99.9
2018-09-10T07:01:57.186Z,99.9
2018-09-10T07:03:04.401Z,99.9
2018-09-10T07:04:11.611Z,99.9
2018-09-10T07:05:18.831Z,99.9
2018-09-10T07:06:26.163Z,99.9
2018-09-10T07:07:33.481Z,99.9
2018-09-10T07:08:40.693Z,99.9
2018-09-10T07:09:47.905Z,99.9
2018-09-10T07:10:54.568Z,99.9
2018-09-10T07:12:01.778Z,99.9
2018-09-10T07:13:08.990Z,99.9
2018-09-10T07:14:16.131Z,99.9
2018-09-10T07:15:23.347Z,99.9
2018-09-10T07:16:30.562Z,99.9
2018-09-10T07:17:37.805Z,99.9
2018-09-10T07:18:45.145Z,99.9
2018-09-10T07:19:52.915Z,99.9
2018-09-10T07:21:00.131Z,99.9
2018-09-10T07:22:07.407Z,99.9
2018-09-10T07:23:14.619Z,99.9
2018-09-10T07:24:21.827Z,99.9
2018-09-10T07:25:28.759Z,99.9
2018-09-10T07:26:35.977Z,99.9
2018-09-10T07:27:43.185Z,99.9
2018-09-10T07:28:50.403Z,99.9
2018-09-10T07:29:57.615Z,99.9
2018-09-10T07:31:04.548Z,99.9
2018-09-10T07:32:11.766Z,99.9
2018-09-10T07:33:18.974Z,99.9
2018-09-10T07:34:26.201Z,99.9
2018-09-10T07:36:55.422Z,99.9
2018-09-10T07:38:02.630Z,99.9
2018-09-10T07:39:09.847Z,99.9
2018-09-10T07:40:17.062Z,99.9
2018-09-10T07:41:24.272Z,99.9
2018-09-10T07:42:31.485Z,99.9
2018-09-10T07:43:38.742Z,99.9
2018-09-10T07:44:45.694Z,99.9
2018-09-10T07:45:52.903Z,99.9
2018-09-10T07:47:00.111Z,99.9
2018-09-10T07:48:07.324Z,99.9
2018-09-10T07:49:14.532Z,99.9
2018-09-10T07:50:21.816Z,99.9
2018-09-10T07:51:29.193Z,99.9
2018-09-10T07:52:36.399Z,99.9
2018-09-10T07:53:43.612Z,99.9
2018-09-10T07:54:50.826Z,99.9
2018-09-10T07:55:57.777Z,99.9
2018-09-10T07:57:04.991Z,99.9
2018-09-10T07:58:11.930Z,99.9
2018-09-10T07:59:19.148Z,99.9
2018-09-10T08:00:26.364Z,99.9
2018-09-10T08:01:33.581Z,98.7
2018-09-10T08:02:40.794Z,99.2
2018-09-10T08:03:48.012Z,99.9
2018-09-10T08:04:55.220Z,99.6
2018-09-10T08:06:02.429Z,99.9
2018-09-10T08:07:09.647Z,97
2018-09-10T08:08:16.858Z,98.6
2018-09-10T08:09:23.878Z,97.5
2018-09-10T08:10:31.890Z,99.6
2018-09-10T08:11:38.816Z,99.8
2018-09-10T08:12:46.033Z,97.3
2018-09-10T08:13:53.243Z,96.1
2018-09-10T08:15:00.454Z,96.3
2018-09-10T08:16:07.664Z,92.5
2018-09-10T08:17:14.878Z,93.2
2018-09-10T08:18:22.092Z,92.1
2018-09-10T08:19:29.303Z,81.7
2018-09-10T08:20:36.514Z,80
2018-09-10T08:21:43.727Z,83.1
2018-09-10T08:22:50.941Z,82.3
2018-09-10T08:23:58.179Z,84.5
2018-09-10T08:25:05.414Z,80.9
2018-09-10T08:26:12.785Z,74.6
2018-09-10T08:27:19.995Z,73.9
2018-09-10T08:28:27.223Z,84.2
2018-09-10T08:29:34.428Z,76.3
2018-09-10T08:30:41.639Z,78.2
2018-09-10T08:31:48.851Z,71
2018-09-10T08:32:56.061Z,66.6
2018-09-10T08:34:03.293Z,74.2
2018-09-10T08:35:10.504Z,69.6
2018-09-10T08:36:17.725Z,67.1
2018-09-10T08:37:24.933Z,77.2
2018-09-10T08:38:32.149Z,77.8
2018-09-10T08:39:39.376Z,73.6
2018-09-10T08:40:46.628Z,66.9
2018-09-10T08:41:53.847Z,61.9
2018-09-10T08:43:01.058Z,64.1
2018-09-10T08:44:08.277Z,67
2018-09-10T08:45:15.504Z,62.2
2018-09-10T08:46:22.722Z,57.8
2018-09-10T08:47:29.671Z,53.7
2018-09-10T08:48:36.899Z,48.8
2018-09-10T08:49:44.109Z,51.4
2018-09-10T08:50:51.329Z,46.6
2018-09-10T08:51:58.548Z,44.1
2018-09-10T08:53:05.763Z,46
2018-09-10T08:54:13.113Z,56.5
2018-09-10T08:55:21.094Z,45.1
2018-09-10T08:56:28.921Z,45.4
2018-09-10T08:57:36.136Z,50.7
2018-09-10T09:00:05.275Z,44.8
2018-09-10T09:01:12.618Z,38.6
2018-09-10T09:02:19.831Z,46.3
2018-09-10T09:03:27.053Z,36.6
2018-09-10T09:04:34.275Z,37.8
2018-09-10T09:05:41.503Z,44.2
2018-09-10T09:06:48.727Z,41.4
2018-09-10T09:07:55.705Z,41.2
2018-09-10T09:09:03.184Z,33.7
2018-09-10T09:10:10.401Z,29.5
2018-09-10T09:11:17.618Z,30.1
2018-09-10T09:12:24.837Z,36.1
2018-09-10T09:13:32.055Z,33
2018-09-10T09:14:39.272Z,29.4
2018-09-10T09:15:46.487Z,33.5
2018-09-10T09:16:53.704Z,32.9
2018-09-10T09:18:00.923Z,31.2
2018-09-10T09:19:08.142Z,31.7
2018-09-10T09:20:15.355Z,27.4
2018-09-10T09:21:22.572Z,29
2018-09-10T09:22:29.786Z,32.7
2018-09-10T09:23:37.053Z,32.6
2018-09-10T09:24:44.794Z,38.7
2018-09-10T09:25:52.014Z,40.2
2018-09-10T09:26:58.957Z,36.1
2018-09-10T09:28:06.179Z,24.8
2018-09-10T09:29:13.397Z,26.3
2018-09-10T09:30:20.689Z,24.1
2018-09-10T09:31:28.530Z,22.2
2018-09-10T09:32:35.754Z,24.7
2018-09-10T09:33:42.971Z,27.5
2018-09-10T09:34:50.190Z,27.7
2018-09-10T09:35:57.405Z,29.8
2018-09-10T09:37:04.626Z,22.3
2018-09-10T09:38:11.844Z,23.4
2018-09-10T09:39:19.059Z,21.3
2018-09-10T09:40:26.280Z,25.6
2018-09-10T09:41:33.494Z,23.6
2018-09-10T09:42:40.712Z,25.9
2018-09-10T09:43:47.925Z,21.2
2018-09-10T09:44:55.140Z,23.8
2018-09-10T09:46:02.083Z,23.9
2018-09-10T09:47:09.305Z,20.5
2018-09-10T09:48:16.525Z,26.9
2018-09-10T09:49:23.741Z,25.6
2018-09-10T09:50:30.682Z,21.5
2018-09-10T09:51:37.899Z,21.4
2018-09-10T09:52:45.113Z,22.9
2018-09-10T09:53:52.065Z,26.4
2018-09-10T09:54:59.285Z,20.9
2018-09-10T09:56:06.504Z,21.6
2018-09-10T09:57:13.736Z,26.5
2018-09-10T09:58:20.955Z,21.2
2018-09-10T09:59:28.170Z,21.3
2018-09-10T10:00:35.401Z,19.7
2018-09-10T10:01:42.617Z,25.4
2018-09-10T10:02:49.836Z,25.7
2018-09-10T10:03:56.814Z,21.9
2018-09-10T10:05:04.100Z,24.3
2018-09-10T10:06:11.349Z,21.2
2018-09-10T10:07:18.570Z,23.3
2018-09-10T10:08:25.515Z,28.1
2018-09-10T10:09:32.732Z,25.4
2018-09-10T10:10:39.953Z,22.4
2018-09-10T10:11:47.368Z,21.7
2018-09-10T10:12:55.380Z,20.5
2018-09-10T10:14:02.600Z,21.9
2018-09-10T10:15:09.817Z,23.2
2018-09-10T10:16:17.082Z,18.9
2018-09-10T10:17:24.423Z,24.1
2018-09-10T10:18:31.637Z,19.7
2018-09-10T10:19:38.869Z,20.5
2018-09-10T10:20:46.089Z,18.5
2018-09-10T10:21:53.355Z,19.9
2018-09-10T10:23:00.366Z,14.2
2018-09-10T10:24:07.587Z,18.6
2018-09-10T10:25:14.799Z,14.5
2018-09-10T10:26:22.023Z,16.6
2018-09-10T10:27:29.235Z,16.2
2018-09-10T10:28:36.454Z,21.3
2018-09-10T10:29:43.682Z,19
2018-09-10T10:30:50.894Z,16.8
2018-09-10T10:31:57.866Z,17.9
2018-09-10T10:33:05.086Z,17.9
2018-09-10T10:34:12.307Z,19.7
2018-09-10T10:35:19.524Z,20
2018-09-10T10:36:26.747Z,15.5
2018-09-10T10:37:33.686Z,16
2018-09-10T10:38:40.906Z,14.3
2018-09-10T10:39:48.128Z,14.5
2018-09-10T10:40:55.351Z,12.9
2018-09-10T10:42:02.573Z,11.9
2018-09-10T10:43:09.521Z,11.5
2018-09-10T10:44:16.741Z,13.8
2018-09-10T10:45:23.697Z,12.2
2018-09-10T10:46:30.647Z,12.4
2018-09-10T10:47:37.868Z,14.4
2018-09-10T10:48:45.089Z,13.9
2018-09-10T10:49:52.322Z,8.4
2018-09-10T10:50:59.552Z,13.6
2018-09-10T10:52:06.770Z,12.5
2018-09-10T10:53:13.994Z,12.7
2018-09-10T10:54:21.212Z,13.4
2018-09-10T10:55:28.432Z,10.4
2018-09-10T10:56:35.650Z,14.3
2018-09-10T10:57:42.870Z,13.5
2018-09-10T10:58:50.114Z,12.2
2018-09-10T10:59:57.053Z,11.9
2018-09-10T11:01:03.995Z,12.6
2018-09-10T11:02:11.219Z,13.9
2018-09-10T11:03:18.441Z,12.9
2018-09-10T11:04:25.662Z,11.5
2018-09-10T11:05:32.889Z,12.9
2018-09-10T11:06:40.115Z,14.7
2018-09-10T11:07:47.069Z,13.8
2018-09-10T11:08:54.296Z,14.6
2018-09-10T11:10:01.514Z,10.3
2018-09-10T11:11:08.739Z,12.5
2018-09-10T11:12:15.947Z,9.7
2018-09-10T11:13:22.893Z,11.9
2018-09-10T11:14:30.119Z,7.3
2018-09-10T11:15:37.344Z,8
2018-09-10T11:16:44.320Z,11.6
2018-09-10T11:17:52.019Z,9.5
2018-09-10T11:18:59.240Z,7.3
2018-09-10T11:20:06.192Z,8.7
2018-09-10T11:21:13.431Z,6.7
2018-09-10T11:22:20.684Z,7.9
2018-09-10T11:23:28.131Z,4.7
2018-09-10T11:24:35.346Z,5.6
2018-09-10T11:25:42.584Z,5.2
2018-09-10T11:26:49.800Z,6.9
2018-09-10T11:27:57.021Z,9.9
2018-09-10T11:29:04.232Z,5
2018-09-10T11:30:11.451Z,10.6
2018-09-10T11:31:18.680Z,4.6
2018-09-10T11:32:25.898Z,7.5
2018-09-10T11:33:33.116Z,9.5
2018-09-10T11:34:40.369Z,9.2
2018-09-10T11:35:47.941Z,10.4
2018-09-10T11:36:55.162Z,6.9
2018-09-10T11:38:02.384Z,7.3
2018-09-10T11:39:09.603Z,3
2018-09-10T11:40:16.815Z,7.4
2018-09-10T11:41:24.046Z,7.5
2018-09-10T11:42:31.267Z,5.3
2018-09-10T11:43:38.485Z,1.2
2018-09-10T11:44:45.697Z,3.3
2018-09-10T11:45:52.920Z,1.1
2018-09-10T11:46:59.878Z,2.7
2018-09-10T11:48:07.098Z,1
2018-09-10T11:49:14.315Z,1
2018-09-10T11:50:21.535Z,3
2018-09-10T11:51:28.767Z,4.8
2018-09-10T11:52:35.992Z,1
2018-09-10T11:53:43.216Z,1
2018-09-10T11:54:50.463Z,1.6
2018-09-10T11:55:57.685Z,1
2018-09-10T11:57:04.912Z,1
2018-09-10T11:58:12.133Z,1
2018-09-10T11:59:19.084Z,1
2018-09-10T12:00:26.306Z,1
2018-09-10T12:01:33.552Z,1.2
2018-09-10T12:02:40.786Z,2.9
2018-09-10T12:03:48.009Z,4
2018-09-10T12:04:55.227Z,1
2018-09-10T12:06:02.462Z,1
2018-09-10T12:07:09.422Z,1
2018-09-10T12:08:16.645Z,1
2018-09-10T12:09:23.866Z,1
2018-09-10T12:10:30.822Z,1
2018-09-10T12:11:38.033Z,1
2018-09-10T12:12:45.264Z,1
2018-09-10T12:13:52.483Z,1
2018-09-10T12:14:59.705Z,1
2018-09-10T12:16:06.931Z,1
2018-09-10T12:17:14.148Z,1
2018-09-10T12:18:21.368Z,1
2018-09-10T12:19:28.584Z,1
2018-09-10T12:20:35.813Z,1
2018-09-10T12:21:43.037Z,1
2018-09-10T12:22:50.255Z,1
2018-09-10T12:23:57.473Z,1
2018-09-10T12:25:04.693Z,1
2018-09-10T12:26:11.638Z,1
2018-09-10T12:27:18.858Z,1
2018-09-10T12:28:26.071Z,1
2018-09-10T12:29:33.303Z,1
2018-09-10T12:30:40.529Z,1
2018-09-10T12:31:47.754Z,1
2018-09-10T12:32:54.977Z,1
2018-09-10T12:34:02.193Z,1
2018-09-10T12:35:09.151Z,1
2018-09-10T12:36:16.365Z,1
2018-09-10T12:37:23.589Z,1
2018-09-10T12:38:30.809Z,1
2018-09-10T12:39:38.069Z,1
2018-09-10T12:40:45.547Z,1
2018-09-10T12:41:52.769Z,1
2018-09-10T12:42:59.986Z,1
2018-09-10T12:44:07.208Z,1
2018-09-10T12:45:14.426Z,1
2018-09-10T12:46:21.429Z,1
2018-09-10T12:47:28.778Z,1
2018-09-10T12:48:35.998Z,1
2018-09-10T12:49:43.220Z,1
2018-09-10T12:50:50.439Z,1
2018-09-10T12:51:57.658Z,1
2018-09-10T12:53:04.879Z,1
2018-09-10T12:54:12.096Z,1
2018-09-10T12:55:19.337Z,1
2018-09-10T12:56:26.567Z,1
2018-09-10T12:57:33.514Z,1
2018-09-10T12:58:40.775Z,1
2018-09-10T12:59:47.764Z,1
2018-09-10T13:00:54.986Z,1
2018-09-10T13:02:02.207Z,1
2018-09-10T13:03:09.150Z,1
2018-09-10T13:04:16.398Z,1
2018-09-10T13:05:23.885Z,1
2018-09-10T13:06:31.114Z,1
2018-09-10T13:07:38.339Z,1
2018-09-10T13:08:45.288Z,1
2018-09-10T13:09:52.507Z,1
2018-09-10T13:10:59.449Z,1
2018-09-10T13:12:06.725Z,1
2018-09-10T13:13:13.948Z,1
2018-09-10T13:14:21.169Z,1
2018-09-10T13:15:28.395Z,1
2018-09-10T13:16:35.616Z,1
2018-09-10T13:17:42.613Z,1
2018-09-10T13:18:49.858Z,1
2018-09-10T13:19:56.801Z,1
2018-09-10T13:21:04.022Z,1
2018-09-10T13:22:11.241Z,1
2018-09-10T13:23:18.458Z,1
2018-09-10T13:24:25.680Z,1
2018-09-10T13:25:32.902Z,1
2018-09-10T13:26:39.846Z,1
2018-09-10T13:27:47.065Z,1
2018-09-10T13:28:54.308Z,1
2018-09-10T13:30:01.532Z,1
2018-09-10T13:31:08.526Z,1
2018-09-10T13:32:15.479Z,1
2018-09-10T13:33:22.702Z,1
2018-09-10T13:34:29.924Z,1
2018-09-10T13:35:37.147Z,1
2018-09-10T13:36:44.476Z,1
2018-09-10T13:37:52.164Z,1
2018-09-10T13:38:59.376Z,1
2018-09-10T13:40:06.599Z,1
2018-09-10T13:41:13.817Z,1
2018-09-10T13:42:21.035Z,1
2018-09-10T13:43:28.255Z,1
2018-09-10T13:44:35.478Z,1
2018-09-10T13:45:42.426Z,1
2018-09-10T13:46:49.364Z,1
2018-09-10T13:47:56.588Z,1
2018-09-10T13:49:03.530Z,1
2018-09-10T13:50:10.784Z,1
2018-09-10T13:51:18.008Z,1
2018-09-10T13:52:25.233Z,1
2018-09-10T13:53:32.458Z,1
2018-09-10T13:54:39.674Z,1
2018-09-10T13:55:46.895Z,1
2018-09-10T13:56:54.123Z,1
2018-09-10T13:58:01.352Z,1
2018-09-10T13:59:08.567Z,1
2018-09-10T14:00:15.794Z,1
2018-09-10T14:01:23.097Z,1
2018-09-10T14:02:30.399Z,1
2018-09-10T14:03:37.631Z,1
2018-09-10T14:04:44.852Z,1
2018-09-10T14:05:51.797Z,1
2018-09-10T14:06:59.020Z,1
2018-09-10T14:08:06.239Z,1
2018-09-10T14:09:13.463Z,1
2018-09-10T14:10:20.681Z,1
2018-09-10T14:11:27.950Z,1
2018-09-10T14:12:34.900Z,1
2018-09-10T14:13:42.120Z,1
2018-09-10T14:14:49.346Z,1
2018-09-10T14:15:56.612Z,1
2018-09-10T14:17:03.829Z,1
2018-09-10T14:18:11.080Z,1
2018-09-10T14:19:18.675Z,1
2018-09-10T14:20:25.895Z,1
2018-09-10T14:21:33.117Z,1
2018-09-10T14:22:40.335Z,1
2018-09-10T14:23:47.558Z,1
2018-09-10T14:24:54.778Z,1
2018-09-10T14:26:01.997Z,1
2018-09-10T14:27:09.226Z,1
2018-09-10T14:28:16.672Z,1
2018-09-10T14:29:23.916Z,1
2018-09-10T14:30:31.137Z,1
2018-09-10T14:31:38.779Z,1
2018-09-10T14:32:46.920Z,1
2018-09-10T14:33:54.994Z,1
2018-09-10T14:35:02.014Z,1
2018-09-10T14:36:09.241Z,1
2018-09-10T14:37:16.477Z,1
2018-09-10T14:38:23.428Z,1
2018-09-10T14:39:30.655Z,1
2018-09-10T22:00:06.357Z,99.9
2018-09-10T22:01:13.578Z,99.9
2018-09-10T22:02:20.796Z,99.9
2018-09-10T22:03:27.742Z,99.9
2018-09-10T22:04:34.969Z,99.9
2018-09-10T22:05:42.184Z,99.9
2018-09-10T22:06:49.119Z,99.9
2018-09-10T22:07:56.331Z,99.9
2018-09-10T22:09:03.543Z,99.9
2018-09-10T22:10:10.778Z,99.9
2018-09-10T22:11:18.375Z,99.9
2018-09-10T22:12:25.586Z,99.9
2018-09-10T22:13:32.801Z,99.9
2018-09-10T22:14:40.013Z,99.9
2018-09-10T22:15:47.225Z,99.9
2018-09-10T22:16:54.446Z,99.9
2018-09-10T22:18:01.659Z,99.9
2018-09-10T22:19:08.871Z,99.9
2018-09-10T22:20:15.813Z,99.9
2018-09-10T22:21:22.749Z,99.9
2018-09-10T22:22:29.686Z,99.9
2018-09-10T22:23:36.901Z,99.9
2018-09-10T22:24:44.152Z,99.9
2018-09-10T22:25:51.843Z,99.9
2018-09-10T22:26:59.078Z,99.9
2018-09-10T22:28:06.277Z,99.9
2018-09-10T22:29:13.489Z,99.9
2018-09-10T22:30:20.707Z,99.9
2018-09-10T22:31:27.648Z,99.9
2018-09-10T22:32:34.864Z,99.9
2018-09-10T22:33:42.079Z,99.9
2018-09-10T22:34:49.298Z,99.9
2018-09-10T22:35:56.508Z,99.9